Airport View

Enter AWOS ICAO identifier for current METAR.

ex. KFNL

K2D5 200250Z AUTO 22009KT 6SM BR BKN090 OVC120 00/00 A3010 RMK AO2 PWINO

20 Mar 2019 02:50

Frequency: 118.675

Phone: 701-742-3991

Other Area AWOS: KGWR - KABR - KBAC - KJMS

TAF AMD KABR 200127Z 2001/2024 24005KT 4SM BR BKN150 FM201300 33009KT P6SM BKN029 FM201800 35012KT P6SM BKN045 FM202300 34008KT P6SM SCT040